Time;durP1;ratioP1;P1;durP2;ratioP2;P2;SDS_P1;SDS_P2;PMS_P1;PMS_P2;Temp;Humidity;BMP_temperature;BMP_pressure;BME280_temperature;BME280_humidity;BME280_pressure;Samples;Min_cycle;Max_cycle;Signal;HPM_P1;HPM_P2
2022/01/21 00:00:41;;;;;;;;;;;23.60;49.20;;;;;;1527252;77;1924;-67
2022/01/21 00:02:43;;;;;;;;;;;23.60;49.20;;;;;;1528638;77;702;-69
2022/01/21 00:04:45;;;;;;;;;;;23.60;49.20;;;;;;1524652;77;1168;-70
2022/01/21 00:06:47;;;;;;;;;;;23.60;49.20;;;;;;1563766;75;1095;-70
2022/01/21 00:08:51;;;;;;;;;;;23.60;49.20;;;;;;1559922;75;698;-69
2022/01/21 00:10:53;;;;;;;;;;;23.60;49.30;;;;;;1548984;75;729;-69
2022/01/21 00:12:56;;;;;;;;;;;23.60;49.20;;;;;;1552602;75;689;-70
2022/01/21 00:14:58;;;;;;;;;;;23.60;49.30;;;;;;1574472;75;1203;-68
2022/01/21 00:17:00;;;;;;;;;;;23.60;49.20;;;;;;1559791;75;804;-68
2022/01/21 00:19:07;;;;;;;;;;;23.60;49.20;;;;;;1563338;75;744;-67
2022/01/21 00:30:26;;;;;;;;;;;23.60;49.20;;;;;;1572559;75;1653;-64
2022/01/21 00:32:28;;;;;;;;;;;23.60;49.30;;;;;;1553790;75;747;-66
2022/01/21 00:34:30;;;;;;;;;;;23.60;49.40;;;;;;1559883;75;721;-65
2022/01/21 00:36:33;;;;;;;;;;;23.60;49.40;;;;;;1567654;75;1126;-64
2022/01/21 00:38:34;;;;;;;;;;;23.60;49.40;;;;;;1568898;75;703;-65
2022/01/21 00:40:36;;;;;;;;;;;23.60;49.40;;;;;;1559794;75;1941;-67
2022/01/21 00:44:42;;;;;;;;;;;23.60;49.40;;;;;;1560215;75;1170;-65
2022/01/21 00:46:44;;;;;;;;;;;23.60;49.40;;;;;;1572570;75;782;-65
2022/01/21 00:48:46;;;;;;;;;;;23.60;49.40;;;;;;1561380;75;700;-65
2022/01/21 00:50:47;;;;;;;;;;;23.60;49.40;;;;;;1570987;75;676;-66
2022/01/21 00:52:49;;;;;;;;;;;23.60;49.50;;;;;;1548642;75;691;-65
2022/01/21 00:54:51;;;;;;;;;;;23.60;49.40;;;;;;1561853;75;1138;-67
2022/01/21 00:56:53;;;;;;;;;;;23.60;49.40;;;;;;1574067;75;729;-65
2022/01/21 00:58:55;;;;;;;;;;;23.60;49.50;;;;;;1563366;75;747;-64
2022/01/21 01:00:57;;;;;;;;;;;23.60;49.50;;;;;;1558558;75;1924;-65
2022/01/21 01:02:59;;;;;;;;;;;23.60;49.40;;;;;;1563937;75;781;-65
2022/01/21 01:05:01;;;;;;;;;;;23.60;49.50;;;;;;1561004;75;1123;-65
2022/01/21 01:07:03;;;;;;;;;;;23.60;49.50;;;;;;1554251;75;1120;-66
2022/01/21 01:09:05;;;;;;;;;;;23.60;49.40;;;;;;1542295;77;759;-65
2022/01/21 01:20:08;;;;;;;;;;;23.60;49.40;;;;;;1532626;77;1916;-67
2022/01/21 01:22:10;;;;;;;;;;;23.60;49.40;;;;;;1527611;77;754;-65
2022/01/21 01:28:35;;;;;;;;;;;23.60;49.40;;;;;;1535289;77;1681;-66
2022/01/21 01:30:37;;;;;;;;;;;23.60;49.40;;;;;;1528349;77;759;-65
2022/01/21 01:32:39;;;;;;;;;;;23.60;49.50;;;;;;1541435;76;749;-67
2022/01/21 01:34:41;;;;;;;;;;;23.60;49.50;;;;;;1527331;77;1194;-69
2022/01/21 01:36:45;;;;;;;;;;;23.60;49.50;;;;;;1529165;77;794;-68
2022/01/21 01:39:03;;;;;;;;;;;23.60;49.50;;;;;;1537239;77;705;-69
2022/01/21 01:40:58;;;;;;;;;;;23.60;49.50;;;;;;1536516;77;1943;-69
2022/01/21 01:49:51;;;;;;;;;;;23.60;49.40;;;;;;1537047;77;1624;-70
2022/01/21 01:51:53;;;;;;;;;;;23.50;49.40;;;;;;1532591;77;696;-70
2022/01/21 01:53:57;;;;;;;;;;;23.50;49.40;;;;;;1539436;77;652;-70
2022/01/21 01:55:59;;;;;;;;;;;23.50;49.40;;;;;;1525820;76;1159;-69
2022/01/21 01:58:01;;;;;;;;;;;23.60;49.40;;;;;;1528160;76;805;-69
2022/01/21 02:00:05;;;;;;;;;;;23.50;49.50;;;;;;1529645;76;735;-71
2022/01/21 02:02:09;;;;;;;;;;;23.60;49.40;;;;;;1525725;77;1925;-68
2022/01/21 02:04:11;;;;;;;;;;;23.60;49.50;;;;;;1526548;77;752;-70
2022/01/21 02:06:13;;;;;;;;;;;23.60;49.40;;;;;;1525210;77;1153;-69
2022/01/21 02:08:15;;;;;;;;;;;23.60;49.50;;;;;;1561314;76;1054;-70
2022/01/21 02:10:16;;;;;;;;;;;23.50;49.40;;;;;;1560417;76;688;-71
2022/01/21 02:12:18;;;;;;;;;;;23.60;49.40;;;;;;1551849;76;745;-70
2022/01/21 02:14:24;;;;;;;;;;;23.50;49.40;;;;;;1546540;76;724;-68
2022/01/21 02:23:07;;;;;;;;;;;23.50;49.40;;;;;;1540858;76;787;-69
2022/01/21 02:25:17;;;;;;;;;;;23.50;49.40;;;;;;1554270;76;1209;-71
2022/01/21 02:27:19;;;;;;;;;;;23.50;49.40;;;;;;1547363;76;678;-70
2022/01/21 02:29:43;;;;;;;;;;;23.60;49.40;;;;;;1558040;76;793;-70
2022/01/21 02:31:34;;;;;;;;;;;23.50;49.40;;;;;;1536666;76;1624;-70
2022/01/21 02:33:36;;;;;;;;;;;23.50;49.40;;;;;;1542656;76;723;-71
2022/01/21 02:35:38;;;;;;;;;;;23.50;49.40;;;;;;1550003;76;1128;-71
2022/01/21 02:37:40;;;;;;;;;;;23.50;49.40;;;;;;1551165;76;625;-71
2022/01/21 02:39:42;;;;;;;;;;;23.50;49.40;;;;;;1548110;76;725;-70
2022/01/21 02:41:44;;;;;;;;;;;23.50;49.50;;;;;;1562264;76;1948;-70
2022/01/21 02:43:46;;;;;;;;;;;23.50;49.50;;;;;;1553416;76;772;-69
2022/01/21 02:45:48;;;;;;;;;;;23.50;49.60;;;;;;1548316;76;1140;-69
2022/01/21 02:47:50;;;;;;;;;;;23.50;49.50;;;;;;1549673;76;777;-69
2022/01/21 02:49:53;;;;;;;;;;;23.50;49.60;;;;;;1562042;76;704;-69
2022/01/21 02:51:56;;;;;;;;;;;23.50;49.60;;;;;;1548038;76;784;-70
2022/01/21 02:54:04;;;;;;;;;;;23.50;49.60;;;;;;1549692;76;684;-69
2022/01/21 02:56:06;;;;;;;;;;;23.50;49.60;;;;;;1555692;76;1128;-70
2022/01/21 02:58:08;;;;;;;;;;;23.60;49.50;;;;;;1560794;76;767;-69
2022/01/21 03:00:10;;;;;;;;;;;23.50;49.50;;;;;;1548706;76;716;-70
2022/01/21 03:02:14;;;;;;;;;;;23.50;49.50;;;;;;1550942;76;1921;-69
2022/01/21 03:06:45;;;;;;;;;;;23.40;49.70;;;;;;1584992;74;1541;-69
2022/01/21 03:08:47;;;;;;;;;;;23.50;49.50;;;;;;1593779;74;689;-70
2022/01/21 03:10:49;;;;;;;;;;;23.50;49.50;;;;;;1596599;74;744;-71
2022/01/21 03:12:51;;;;;;;;;;;23.40;49.40;;;;;;1580273;74;811;-67
2022/01/21 03:14:53;;;;;;;;;;;23.50;49.60;;;;;;1596601;73;1218;-71
2022/01/21 03:16:55;;;;;;;;;;;23.50;49.60;;;;;;1599715;74;755;-70
2022/01/21 03:18:57;;;;;;;;;;;23.50;49.60;;;;;;1592051;74;738;-71
2022/01/21 03:20:59;;;;;;;;;;;23.50;49.60;;;;;;1599059;74;1919;-71
2022/01/21 03:23:01;;;;;;;;;;;23.50;49.60;;;;;;1598837;74;753;-71
2022/01/21 03:25:06;;;;;;;;;;;23.50;49.70;;;;;;1598465;74;1131;-72
2022/01/21 03:27:08;;;;;;;;;;;23.50;49.70;;;;;;1588570;74;758;-67
2022/01/21 03:29:10;;;;;;;;;;;23.50;49.80;;;;;;1598538;74;720;-70
2022/01/21 03:31:12;;;;;;;;;;;23.50;49.70;;;;;;1598162;74;705;-70
2022/01/21 03:33:14;;;;;;;;;;;23.50;49.70;;;;;;1593321;74;820;-71
2022/01/21 03:35:16;;;;;;;;;;;23.60;49.70;;;;;;1598841;74;1076;-70
2022/01/21 03:37:18;;;;;;;;;;;23.50;49.70;;;;;;1598336;74;702;-71
2022/01/21 03:39:20;;;;;;;;;;;23.50;49.70;;;;;;1589165;74;778;-73
2022/01/21 03:41:21;;;;;;;;;;;23.50;49.70;;;;;;1595555;74;1932;-70
2022/01/21 03:43:23;;;;;;;;;;;23.50;49.70;;;;;;1599765;74;718;-70
2022/01/21 03:45:25;;;;;;;;;;;23.50;49.70;;;;;;1597627;74;1107;-69
2022/01/21 03:47:27;;;;;;;;;;;23.60;49.70;;;;;;1598576;74;789;-69
2022/01/21 03:49:36;;;;;;;;;;;23.50;49.60;;;;;;1600181;74;725;-70
2022/01/21 03:51:32;;;;;;;;;;;23.60;49.60;;;;;;1597625;74;1615;-72
2022/01/21 03:53:34;;;;;;;;;;;23.60;49.70;;;;;;1599772;74;752;-69
2022/01/21 03:55:36;;;;;;;;;;;23.60;49.70;;;;;;1600214;74;1127;-69
2022/01/21 03:57:38;;;;;;;;;;;23.70;49.80;;;;;;1599292;74;809;-69
2022/01/21 03:59:40;;;;;;;;;;;23.60;49.70;;;;;;1599011;74;757;-68
2022/01/21 04:01:42;;;;;;;;;;;23.60;49.70;;;;;;1599559;74;1926;-70
2022/01/21 04:03:44;;;;;;;;;;;23.70;49.80;;;;;;1596106;74;780;-69
2022/01/21 04:05:45;;;;;;;;;;;23.70;49.80;;;;;;1596407;74;1137;-70
2022/01/21 04:07:47;;;;;;;;;;;23.70;49.70;;;;;;1591354;75;751;-72
2022/01/21 04:09:49;;;;;;;;;;;23.70;49.70;;;;;;1590736;75;788;-73
2022/01/21 04:11:51;;;;;;;;;;;23.70;49.70;;;;;;1591635;75;781;-79
2022/01/21 04:13:55;;;;;;;;;;;23.70;49.70;;;;;;1590096;75;760;-71
2022/01/21 04:15:57;;;;;;;;;;;23.70;49.70;;;;;;1592443;73;1117;-73
2022/01/21 04:17:58;;;;;;;;;;;23.70;49.60;;;;;;1586945;75;705;-72
2022/01/21 04:20:00;;;;;;;;;;;23.70;49.60;;;;;;1591248;74;711;-73
2022/01/21 04:22:02;;;;;;;;;;;23.80;49.60;;;;;;1587191;75;1936;-73
2022/01/21 04:24:04;;;;;;;;;;;23.70;49.50;;;;;;1578767;75;807;-75
2022/01/21 04:26:06;;;;;;;;;;;23.80;49.50;;;;;;1582597;74;1130;-73
2022/01/21 04:28:08;;;;;;;;;;;23.70;49.50;;;;;;1578164;75;732;-73
2022/01/21 04:30:10;;;;;;;;;;;23.80;49.40;;;;;;1576878;75;716;-70
2022/01/21 04:32:12;;;;;;;;;;;23.70;49.40;;;;;;1591653;75;725;-69
2022/01/21 04:34:14;;;;;;;;;;;23.80;49.40;;;;;;1587963;75;961;-71
2022/01/21 04:36:16;;;;;;;;;;;23.80;49.30;;;;;;1589778;74;1116;-69
2022/01/21 04:38:21;;;;;;;;;;;23.80;49.40;;;;;;1585556;75;818;-70
2022/01/21 04:40:24;;;;;;;;;;;23.90;49.40;;;;;;1588683;75;1653;-73
2022/01/21 04:47:18;;;;;;;;;;;23.80;49.20;;;;;;1591526;75;1648;-72
2022/01/21 04:49:20;;;;;;;;;;;23.80;49.20;;;;;;1584272;74;628;-73
2022/01/21 04:51:27;;;;;;;;;;;23.90;49.30;;;;;;1591444;74;840;-71
2022/01/21 04:53:26;;;;;;;;;;;23.80;49.20;;;;;;1581492;75;1696;-68
2022/01/21 04:55:28;;;;;;;;;;;23.80;49.30;;;;;;1588590;75;1140;-74
2022/01/21 04:57:30;;;;;;;;;;;23.90;49.30;;;;;;1589582;74;730;-70
2022/01/21 04:59:32;;;;;;;;;;;23.90;49.20;;;;;;1588865;75;793;-72
2022/01/21 05:01:34;;;;;;;;;;;23.80;49.20;;;;;;1588234;75;1925;-72
2022/01/21 05:03:37;;;;;;;;;;;23.90;49.20;;;;;;1591758;75;681;-70
2022/01/21 05:05:39;;;;;;;;;;;23.90;49.20;;;;;;1587693;74;1139;-72
2022/01/21 05:07:42;;;;;;;;;;;23.90;49.20;;;;;;1587827;74;725;-71
2022/01/21 05:09:44;;;;;;;;;;;23.90;49.20;;;;;;1587824;75;783;-70
2022/01/21 05:11:46;;;;;;;;;;;23.90;49.20;;;;;;1591846;75;802;-72
2022/01/21 05:13:56;;;;;;;;;;;23.90;49.20;;;;;;1589353;75;767;-71
2022/01/21 05:16:07;;;;;;;;;;;23.90;49.20;;;;;;1586784;74;1694;-73
2022/01/21 05:18:03;;;;;;;;;;;24.00;49.10;;;;;;1587522;74;1582;-72
2022/01/21 05:20:05;;;;;;;;;;;23.90;49.10;;;;;;1588333;74;704;-72
2022/01/21 05:22:07;;;;;;;;;;;23.90;49.10;;;;;;1591476;74;1931;-70
2022/01/21 05:24:09;;;;;;;;;;;23.90;49.10;;;;;;1589341;74;720;-72
2022/01/21 05:26:12;;;;;;;;;;;23.90;49.10;;;;;;1591503;74;1093;-74
2022/01/21 05:28:14;;;;;;;;;;;23.90;49.20;;;;;;1579969;75;768;-72
2022/01/21 05:30:16;;;;;;;;;;;23.90;49.00;;;;;;1587811;74;736;-72
2022/01/21 05:32:18;;;;;;;;;;;23.90;49.20;;;;;;1590721;75;743;-72
2022/01/21 05:34:20;;;;;;;;;;;23.90;49.00;;;;;;1589386;75;700;-72
2022/01/21 05:36:21;;;;;;;;;;;23.90;49.00;;;;;;1590821;75;1101;-70
2022/01/21 05:38:23;;;;;;;;;;;23.90;49.00;;;;;;1584486;74;833;-74
2022/01/21 05:40:25;;;;;;;;;;;23.90;48.90;;;;;;1590412;75;713;-75
2022/01/21 05:42:27;;;;;;;;;;;23.90;49.10;;;;;;1592028;75;1934;-71
2022/01/21 05:48:52;;;;;;;;;;;23.80;49.00;;;;;;1587857;74;1644;-69
2022/01/21 05:50:54;;;;;;;;;;;23.90;49.10;;;;;;1590201;75;712;-71
2022/01/21 05:52:56;;;;;;;;;;;23.90;49.20;;;;;;1586993;75;816;-71
2022/01/21 05:54:59;;;;;;;;;;;23.90;49.20;;;;;;1589754;74;1147;-71
2022/01/21 05:57:06;;;;;;;;;;;23.90;49.20;;;;;;1590569;74;782;-72
2022/01/21 05:59:07;;;;;;;;;;;23.90;49.20;;;;;;1590127;75;1810;-71
2022/01/21 06:01:09;;;;;;;;;;;24.00;49.20;;;;;;1591629;75;680;-69
2022/01/21 06:03:11;;;;;;;;;;;24.00;49.10;;;;;;1585808;75;1931;-70
2022/01/21 06:05:13;;;;;;;;;;;24.00;49.00;;;;;;1578009;74;1155;-74
2022/01/21 06:07:15;;;;;;;;;;;23.90;49.00;;;;;;1586698;75;820;-70
2022/01/21 06:09:17;;;;;;;;;;;23.90;49.00;;;;;;1573852;75;719;-73
2022/01/21 06:11:19;;;;;;;;;;;23.90;49.00;;;;;;1586076;75;721;-74
2022/01/21 06:13:21;;;;;;;;;;;23.90;48.90;;;;;;1581564;74;750;-70
2022/01/21 06:15:23;;;;;;;;;;;23.90;49.00;;;;;;1585673;75;1112;-70
2022/01/21 06:17:25;;;;;;;;;;;23.90;49.00;;;;;;1570335;75;787;-68
2022/01/21 06:19:27;;;;;;;;;;;23.90;49.00;;;;;;1590527;75;750;-70
2022/01/21 06:21:29;;;;;;;;;;;23.90;49.00;;;;;;1590328;74;724;-73
2022/01/21 06:23:31;;;;;;;;;;;23.90;49.00;;;;;;1587362;75;1927;-71
2022/01/21 06:25:33;;;;;;;;;;;23.90;49.00;;;;;;1590401;75;1112;-71
2022/01/21 06:27:36;;;;;;;;;;;23.90;49.00;;;;;;1586176;75;723;-71
2022/01/21 06:29:38;;;;;;;;;;;23.90;49.00;;;;;;1590057;74;725;-71
2022/01/21 06:31:40;;;;;;;;;;;23.90;49.00;;;;;;1582144;75;730;-70
2022/01/21 06:33:42;;;;;;;;;;;23.90;49.00;;;;;;1586628;75;809;-71
2022/01/21 06:35:44;;;;;;;;;;;23.90;49.00;;;;;;1583566;74;1142;-71
2022/01/21 06:37:45;;;;;;;;;;;23.90;49.00;;;;;;1587176;75;784;-72
2022/01/21 06:39:47;;;;;;;;;;;23.90;48.90;;;;;;1589037;75;765;-72
2022/01/21 06:41:51;;;;;;;;;;;23.90;48.90;;;;;;1584078;75;1926;-74
2022/01/21 06:43:53;;;;;;;;;;;23.90;48.90;;;;;;1591229;75;704;-72
2022/01/21 06:45:54;;;;;;;;;;;23.90;48.90;;;;;;1584264;75;1151;-71
2022/01/21 06:48:02;;;;;;;;;;;23.80;48.80;;;;;;1586716;74;717;-73
2022/01/21 06:50:00;;;;;;;;;;;23.90;48.90;;;;;;1575136;74;1565;-73
2022/01/21 06:52:02;;;;;;;;;;;23.90;48.90;;;;;;1588455;75;816;-73
2022/01/21 06:54:04;;;;;;;;;;;23.90;48.90;;;;;;1578046;75;718;-73
2022/01/21 06:56:06;;;;;;;;;;;23.90;48.70;;;;;;1591142;75;1133;-71
2022/01/21 06:58:07;;;;;;;;;;;23.80;48.60;;;;;;1588000;74;729;-73
2022/01/21 07:00:10;;;;;;;;;;;23.90;48.70;;;;;;1584709;75;725;-72
2022/01/21 07:02:12;;;;;;;;;;;23.80;48.60;;;;;;1586335;74;1914;-73
2022/01/21 07:04:14;;;;;;;;;;;23.90;48.60;;;;;;1590658;75;739;-72
2022/01/21 07:06:16;;;;;;;;;;;23.90;48.60;;;;;;1574113;74;1095;-73
2022/01/21 07:08:18;;;;;;;;;;;23.90;48.60;;;;;;1587786;74;792;-72
2022/01/21 07:10:20;;;;;;;;;;;23.90;48.60;;;;;;1590415;75;717;-73
2022/01/21 07:12:22;;;;;;;;;;;23.90;48.60;;;;;;1587510;75;672;-73
2022/01/21 07:14:23;;;;;;;;;;;23.90;48.60;;;;;;1592209;75;697;-76
2022/01/21 07:16:25;;;;;;;;;;;23.90;48.60;;;;;;1589868;74;1146;-70
2022/01/21 07:18:27;;;;;;;;;;;23.80;47.90;;;;;;1590321;74;802;-69
2022/01/21 07:20:29;;;;;;;;;;;23.80;47.50;;;;;;1592153;74;753;-68
2022/01/21 07:22:31;;;;;;;;;;;23.80;46.20;;;;;;1592253;74;1953;-66
2022/01/21 07:24:33;;;;;;;;;;;23.70;45.50;;;;;;1591116;74;1123;-69
2022/01/21 07:26:35;;;;;;;;;;;23.80;45.10;;;;;;1591508;74;741;-71
2022/01/21 07:28:36;;;;;;;;;;;23.70;44.40;;;;;;1591707;74;885;-71
2022/01/21 07:30:38;;;;;;;;;;;23.70;44.00;;;;;;1589805;74;756;-71
2022/01/21 07:32:41;;;;;;;;;;;23.60;43.40;;;;;;1588875;75;738;-74
2022/01/21 07:34:43;;;;;;;;;;;23.60;43.30;;;;;;1590258;75;1142;-71
2022/01/21 07:36:45;;;;;;;;;;;23.50;43.10;;;;;;1589314;75;716;-72
2022/01/21 07:38:46;;;;;;;;;;;23.50;43.80;;;;;;1590666;75;811;-71
2022/01/21 07:40:48;;;;;;;;;;;23.50;44.40;;;;;;1584954;75;726;-71
2022/01/21 07:42:50;;;;;;;;;;;23.50;44.80;;;;;;1589064;75;1942;-70
2022/01/21 07:44:52;;;;;;;;;;;23.50;45.00;;;;;;1588898;75;1186;-72
2022/01/21 07:46:54;;;;;;;;;;;23.60;45.20;;;;;;1589650;74;744;-71
2022/01/21 07:48:57;;;;;;;;;;;23.60;45.40;;;;;;1591178;74;851;-71
2022/01/21 07:50:59;;;;;;;;;;;23.50;45.50;;;;;;1590832;75;772;-73
2022/01/21 07:53:01;;;;;;;;;;;23.60;45.50;;;;;;1591318;74;787;-72
2022/01/21 07:55:03;;;;;;;;;;;23.60;45.60;;;;;;1590735;73;1122;-72
2022/01/21 07:57:05;;;;;;;;;;;23.60;45.70;;;;;;1591846;74;802;-72
2022/01/21 07:59:08;;;;;;;;;;;23.60;45.80;;;;;;1591111;74;717;-71
2022/01/21 08:01:10;;;;;;;;;;;23.60;45.80;;;;;;1592112;74;753;-72
2022/01/21 08:03:12;;;;;;;;;;;23.70;46.00;;;;;;1586459;75;1939;-72
2022/01/21 08:05:14;;;;;;;;;;;23.70;46.00;;;;;;1583625;75;1163;-74
2022/01/21 08:07:16;;;;;;;;;;;23.70;46.10;;;;;;1589091;74;729;-72
2022/01/21 08:09:23;;;;;;;;;;;23.70;46.10;;;;;;1587355;74;776;-72
2022/01/21 08:11:22;;;;;;;;;;;23.70;46.20;;;;;;1589953;75;1624;-72
2022/01/21 08:13:24;;;;;;;;;;;23.70;46.20;;;;;;1587018;74;809;-71
2022/01/21 08:15:26;;;;;;;;;;;23.70;46.30;;;;;;1590080;74;1159;-73
2022/01/21 08:17:29;;;;;;;;;;;23.70;46.30;;;;;;1590923;75;664;-72
2022/01/21 08:19:31;;;;;;;;;;;23.70;46.30;;;;;;1589874;75;787;-71
2022/01/21 08:21:33;;;;;;;;;;;23.70;46.40;;;;;;1587118;74;647;-70
2022/01/21 08:23:35;;;;;;;;;;;23.70;46.40;;;;;;1590864;74;1953;-73
2022/01/21 08:25:36;;;;;;;;;;;23.70;46.50;;;;;;1591722;75;1191;-72
2022/01/21 08:27:38;;;;;;;;;;;23.70;46.40;;;;;;1586632;75;721;-72
2022/01/21 08:29:40;;;;;;;;;;;23.70;46.50;;;;;;1590422;75;782;-73
2022/01/21 08:31:43;;;;;;;;;;;23.80;46.50;;;;;;1590836;74;780;-72
2022/01/21 08:33:45;;;;;;;;;;;23.70;46.50;;;;;;1589232;75;823;-70
2022/01/21 08:35:47;;;;;;;;;;;23.70;46.50;;;;;;1584555;74;1103;-70
2022/01/21 08:37:52;;;;;;;;;;;23.70;46.60;;;;;;1580929;75;683;-71
2022/01/21 08:39:52;;;;;;;;;;;23.70;46.60;;;;;;1588097;74;1671;-75
2022/01/21 08:41:54;;;;;;;;;;;23.70;46.60;;;;;;1588291;74;735;-70
2022/01/21 08:43:56;;;;;;;;;;;23.80;46.60;;;;;;1591613;74;1926;-70
2022/01/21 08:45:58;;;;;;;;;;;23.70;46.60;;;;;;1582081;75;1155;-72
2022/01/21 08:48:00;;;;;;;;;;;23.80;46.70;;;;;;1581378;75;632;-71
2022/01/21 08:50:06;;;;;;;;;;;23.80;46.70;;;;;;1586331;75;795;-71
2022/01/21 08:52:05;;;;;;;;;;;23.70;46.70;;;;;;1591100;75;1416;-73
2022/01/21 08:54:07;;;;;;;;;;;23.80;46.70;;;;;;1583274;75;724;-71
2022/01/21 08:56:10;;;;;;;;;;;23.70;46.70;;;;;;1581503;75;1115;-71
2022/01/21 08:58:12;;;;;;;;;;;23.80;46.70;;;;;;1584107;75;773;-72
2022/01/21 09:00:16;;;;;;;;;;;23.90;46.80;;;;;;1590957;75;712;-71
2022/01/21 09:02:18;;;;;;;;;;;23.90;46.70;;;;;;1590676;75;1540;-73
2022/01/21 09:04:20;;;;;;;;;;;23.90;46.70;;;;;;1587218;75;1903;-71
2022/01/21 09:06:27;;;;;;;;;;;23.80;46.60;;;;;;1589705;74;1072;-72
2022/01/21 09:08:28;;;;;;;;;;;23.90;46.80;;;;;;1582469;75;1637;-71
2022/01/21 09:10:29;;;;;;;;;;;23.90;46.70;;;;;;1591834;75;1342;-71
2022/01/21 09:12:31;;;;;;;;;;;24.00;46.60;;;;;;1591474;74;716;-72
2022/01/21 09:14:34;;;;;;;;;;;24.00;46.60;;;;;;1584161;74;1203;-72
2022/01/21 09:16:36;;;;;;;;;;;24.00;46.50;;;;;;1585370;74;910;-71
2022/01/21 09:18:54;;;;;;;;;;;24.10;46.60;;;;;;1586018;74;734;-72
2022/01/21 09:20:50;;;;;;;;;;;24.00;46.40;;;;;;1587027;75;1027;-71
2022/01/21 09:22:52;;;;;;;;;;;24.10;46.60;;;;;;1588364;75;1938;-71
2022/01/21 09:24:54;;;;;;;;;;;24.20;46.50;;;;;;1572945;74;1143;-72
2022/01/21 09:26:55;;;;;;;;;;;24.20;46.50;;;;;;1589554;75;721;-73
2022/01/21 09:28:58;;;;;;;;;;;24.20;46.40;;;;;;1585982;74;738;-72
2022/01/21 09:31:00;;;;;;;;;;;24.20;46.40;;;;;;1587877;74;782;-74
2022/01/21 09:33:01;;;;;;;;;;;24.20;46.30;;;;;;1589561;75;819;-72
2022/01/21 09:35:03;;;;;;;;;;;24.20;46.30;;;;;;1579646;75;1132;-71
2022/01/21 09:37:06;;;;;;;;;;;24.30;46.30;;;;;;1590795;74;800;-72
2022/01/21 09:39:08;;;;;;;;;;;24.30;46.30;;;;;;1589250;75;732;-75
2022/01/21 09:41:10;;;;;;;;;;;24.30;46.30;;;;;;1588459;74;762;-72
2022/01/21 09:43:12;;;;;;;;;;;24.30;46.20;;;;;;1591502;75;1952;-72
2022/01/21 09:45:18;;;;;;;;;;;24.40;46.20;;;;;;1588517;75;1362;-74
2022/01/21 09:47:19;;;;;;;;;;;24.20;46.00;;;;;;1589209;74;1544;-73
2022/01/21 09:49:26;;;;;;;;;;;24.20;45.90;;;;;;1586457;74;713;-73
2022/01/21 09:51:26;;;;;;;;;;;24.20;45.90;;;;;;1587766;74;1643;-72
2022/01/21 09:53:31;;;;;;;;;;;24.20;46.00;;;;;;1585408;74;1108;-73
2022/01/21 09:55:33;;;;;;;;;;;24.30;46.00;;;;;;1592121;73;1145;-71
2022/01/21 09:57:35;;;;;;;;;;;24.20;46.00;;;;;;1590955;75;694;-72
2022/01/21 09:59:39;;;;;;;;;;;24.20;46.00;;;;;;1577112;74;750;-72
2022/01/21 10:01:41;;;;;;;;;;;24.30;46.00;;;;;;1571618;75;691;-70
2022/01/21 10:03:43;;;;;;;;;;;24.30;46.00;;;;;;1587672;75;1935;-71
2022/01/21 10:05:46;;;;;;;;;;;24.30;46.00;;;;;;1580919;75;1133;-71
2022/01/21 10:07:49;;;;;;;;;;;24.30;46.00;;;;;;1590951;74;1786;-71
2022/01/21 10:09:51;;;;;;;;;;;24.40;46.00;;;;;;1583667;75;802;-71
2022/01/21 10:11:53;;;;;;;;;;;24.30;46.00;;;;;;1588280;75;736;-74
2022/01/21 10:13:55;;;;;;;;;;;24.40;45.90;;;;;;1575227;75;744;-72
2022/01/21 10:15:57;;;;;;;;;;;24.40;45.90;;;;;;1587879;74;1101;-71
2022/01/21 10:18:03;;;;;;;;;;;24.40;45.80;;;;;;1581269;74;733;-72
2022/01/21 10:20:16;;;;;;;;;;;24.50;46.00;;;;;;1583095;74;676;-74
2022/01/21 10:22:19;;;;;;;;;;;24.40;45.80;;;;;;1587490;75;714;-71
2022/01/21 10:24:21;;;;;;;;;;;24.50;46.00;;;;;;1582956;74;1915;-73
2022/01/21 10:26:23;;;;;;;;;;;24.40;46.00;;;;;;1588422;75;1569;-69
2022/01/21 10:28:25;;;;;;;;;;;24.30;46.00;;;;;;1591324;75;820;-71
2022/01/21 10:30:28;;;;;;;;;;;24.30;46.00;;;;;;1584090;75;769;-71
2022/01/21 10:32:33;;;;;;;;;;;24.40;46.00;;;;;;1591494;74;732;-73
2022/01/21 10:34:38;;;;;;;;;;;24.30;46.00;;;;;;1590113;74;1108;-71
2022/01/21 10:36:44;;;;;;;;;;;24.30;46.00;;;;;;1589553;75;791;-70
2022/01/21 10:38:46;;;;;;;;;;;24.30;46.00;;;;;;1584509;75;1847;-72
2022/01/21 10:40:47;;;;;;;;;;;24.30;46.10;;;;;;1590211;75;728;-72
2022/01/21 10:42:49;;;;;;;;;;;24.20;46.00;;;;;;1590993;74;765;-71
2022/01/21 10:44:51;;;;;;;;;;;24.20;46.00;;;;;;1590915;74;1937;-74
2022/01/21 10:47:03;;;;;;;;;;;24.30;46.10;;;;;;1590451;74;685;-71
2022/01/21 10:49:12;;;;;;;;;;;24.20;46.00;;;;;;1587379;75;729;-71
2022/01/21 10:51:17;;;;;;;;;;;24.20;46.00;;;;;;1591137;75;788;-73
2022/01/21 10:53:29;;;;;;;;;;;24.30;46.20;;;;;;1592358;74;707;-74
2022/01/21 10:55:32;;;;;;;;;;;24.20;46.10;;;;;;1587626;73;1137;-80
2022/01/21 10:57:36;;;;;;;;;;;24.20;46.10;;;;;;1589851;74;729;-72
2022/01/21 10:59:45;;;;;;;;;;;24.20;46.00;;;;;;1589279;75;762;-70
2022/01/21 11:01:47;;;;;;;;;;;24.20;46.00;;;;;;1588516;74;801;-70
2022/01/21 11:04:00;;;;;;;;;;;24.10;46.10;;;;;;1553381;76;1927;-69
2022/01/21 11:06:11;;;;;;;;;;;24.20;46.00;;;;;;1544000;76;1138;-73
2022/01/21 11:08:14;;;;;;;;;;;24.20;46.00;;;;;;1554620;76;934;-69
2022/01/21 11:10:36;;;;;;;;;;;24.20;46.10;;;;;;1559504;76;801;-72
2022/01/21 11:12:38;;;;;;;;;;;24.20;46.20;;;;;;1598263;74;675;-71
2022/01/21 11:14:41;;;;;;;;;;;24.10;46.10;;;;;;1590828;74;1169;-73
2022/01/21 11:16:46;;;;;;;;;;;24.20;46.10;;;;;;1585841;74;1012;-70
2022/01/21 11:18:54;;;;;;;;;;;24.20;46.10;;;;;;1594262;74;1667;-74
2022/01/21 11:21:06;;;;;;;;;;;24.20;46.10;;;;;;1594417;74;814;-70
2022/01/21 11:23:05;;;;;;;;;;;24.20;46.00;;;;;;1591990;74;1650;-71
2022/01/21 11:25:07;;;;;;;;;;;24.20;46.00;;;;;;1594349;74;1901;-71
2022/01/21 11:27:10;;;;;;;;;;;24.30;46.20;;;;;;1597820;74;791;-71
2022/01/21 11:29:12;;;;;;;;;;;24.30;46.10;;;;;;1597673;74;724;-71
2022/01/21 11:31:14;;;;;;;;;;;24.30;46.10;;;;;;1597791;74;707;-71
2022/01/21 11:33:16;;;;;;;;;;;24.30;46.00;;;;;;1597292;74;747;-72
2022/01/21 11:35:18;;;;;;;;;;;24.30;46.00;;;;;;1595547;74;1146;-73
2022/01/21 11:37:19;;;;;;;;;;;24.30;46.00;;;;;;1596300;74;754;-70
2022/01/21 11:39:21;;;;;;;;;;;24.30;45.90;;;;;;1597068;74;746;-72
2022/01/21 11:41:28;;;;;;;;;;;24.30;46.00;;;;;;1595821;74;785;-71
2022/01/21 11:43:30;;;;;;;;;;;24.30;45.90;;;;;;1597454;74;695;-74
2022/01/21 11:46:03;;;;;;;;;;;24.40;45.90;;;;;;1594435;74;1891;-74
2022/01/21 11:47:50;;;;;;;;;;;24.40;45.90;;;;;;1591118;74;1461;-70
2022/01/21 11:49:43;;;;;;;;;;;24.40;46.00;;;;;;1587708;74;1138;-70
2022/01/21 11:51:45;;;;;;;;;;;24.40;45.90;;;;;;1597997;74;787;-73
2022/01/21 11:53:48;;;;;;;;;;;24.50;46.00;;;;;;1594700;74;763;-71
2022/01/21 11:55:50;;;;;;;;;;;24.40;46.00;;;;;;1590580;74;1085;-70
2022/01/21 11:57:52;;;;;;;;;;;24.50;46.10;;;;;;1593755;74;791;-71
2022/01/21 12:02:22;;;;;;;;;;;24.50;46.20;;;;;;1596696;74;812;-70
2022/01/21 12:04:32;;;;;;;;;;;24.50;46.40;;;;;;1588551;74;1918;-71
2022/01/21 12:06:34;;;;;;;;;;;24.50;46.70;;;;;;1587491;74;751;-72
2022/01/21 12:08:47;;;;;;;;;;;24.50;47.20;;;;;;1589214;73;958;-71
2022/01/21 12:10:48;;;;;;;;;;;24.50;47.30;;;;;;1586301;74;974;-72
2022/01/21 12:13:01;;;;;;;;;;;24.50;47.20;;;;;;1584970;74;743;-70
2022/01/21 12:15:03;;;;;;;;;;;24.50;47.10;;;;;;1590660;73;1627;-72
2022/01/21 12:17:15;;;;;;;;;;;24.70;46.80;;;;;;1590681;74;1632;-70
2022/01/21 12:19:20;;;;;;;;;;;24.60;46.60;;;;;;1588747;74;1470;-68
2022/01/21 12:21:31;;;;;;;;;;;24.50;46.70;;;;;;1583466;74;1752;-71
2022/01/21 12:23:43;;;;;;;;;;;24.50;46.80;;;;;;1596504;74;769;-70
2022/01/21 12:26:03;;;;;;;;;;;24.40;46.70;;;;;;1590245;74;1922;-73
2022/01/21 12:28:18;;;;;;;;;;;24.40;46.80;;;;;;1591935;74;693;-70
2022/01/21 12:30:25;;;;;;;;;;;24.30;46.90;;;;;;1583642;74;734;-71
2022/01/21 12:32:37;;;;;;;;;;;24.30;46.90;;;;;;1592974;74;1538;-72
2022/01/21 12:34:40;;;;;;;;;;;24.30;46.80;;;;;;1586499;74;1697;-69
2022/01/21 12:36:55;;;;;;;;;;;24.20;46.70;;;;;;1575468;74;1241;-72
2022/01/21 12:41:05;;;;;;;;;;;24.20;46.70;;;;;;1582983;74;728;-74
2022/01/21 12:43:25;;;;;;;;;;;24.10;46.80;;;;;;1561038;74;1438;-68
2022/01/21 12:45:27;;;;;;;;;;;24.20;46.80;;;;;;1589070;74;1936;-70
2022/01/21 12:47:31;;;;;;;;;;;24.20;46.80;;;;;;1575954;74;725;-71
2022/01/21 12:49:35;;;;;;;;;;;24.20;46.80;;;;;;1586482;74;785;-73
2022/01/21 12:51:57;;;;;;;;;;;24.10;46.70;;;;;;1579587;74;840;-72
2022/01/21 12:55:57;;;;;;;;;;;24.20;46.70;;;;;;1537171;74;1107;-69
2022/01/21 12:58:00;;;;;;;;;;;24.10;46.60;;;;;;1583674;74;694;-71
2022/01/21 13:00:09;;;;;;;;;;;24.10;46.70;;;;;;1579708;74;788;-71
2022/01/21 13:02:13;;;;;;;;;;;24.10;46.60;;;;;;1588281;74;667;-70
2022/01/21 13:04:33;;;;;;;;;;;24.20;46.70;;;;;;1577392;74;1916;-70
2022/01/21 13:06:37;;;;;;;;;;;24.20;46.70;;;;;;1584517;74;720;-74
2022/01/21 13:08:40;;;;;;;;;;;24.20;46.60;;;;;;1579595;74;838;-71
2022/01/21 13:10:42;;;;;;;;;;;24.10;46.60;;;;;;1579821;74;802;-72